Tundra — 5BVN2 — position and weather

sailwx.info

Track history (hours):
 
Tides and Currents Weather Stations Pressure Air Temp Water Temp Dewpoint Dewpoint Depression Visibility Wind Speed Wind Dir Waves Ship Positions

Tundra

Last reported at 2018-Jun-23 10:56 UTC. Time now 2018-Jul-16 04:33 UTC.
Position N 46°01' W 073°10'.
Warning: this ship's position is 22 days out of date.

Length 185 m; draft 8 m.

Type: Cargo ship. MMSI: 209015000.

Date/timePositionNaut miles runAvg speedWind from/ knotsBaromVisibWave heightAir tempDewpointWater temp
2018-Jun-23 10:56N 46°01' W 073°10'613.7
2018-Jun-23 10:30N 45°56' W 073°13'713.6
2018-Jun-23 10:00N 45°50' W 073°18'2211.0
2018-Jun-23 07:59N 45°30' W 073°31'0 0.5
2018-Jun-23 07:22N 45°30' W 073°31'1 1.7
2018-Jun-23 07:00N 45°29' W 073°31'2 4.3
2018-Jun-23 06:30N 45°27' W 073°30'3 5.6
2018-Jun-23 06:00N 45°24' W 073°32'1 2.3
2018-Jun-23 05:30N 45°24' W 073°34'1 1.1
2018-Jun-23 05:00N 45°24' W 073°35'2 4.2
2018-Jun-23 04:29N 45°24' W 073°38'3 5.8
2018-Jun-23 04:00N 45°25' W 073°42'5 9.4
2018-Jun-23 03:30N 45°23' W 073°48'  
Track history (hours):
 
Tides and Currents Weather Stations Pressure Air Temp Water Temp Dewpoint Dewpoint Depression Visibility Wind Speed Wind Dir Waves Ship Positions

Tundra

Last reported at 2018-Jun-23 10:56 UTC. Time now 2018-Jul-16 04:33 UTC.
Position N 46°01' W 073°10'.
Warning: this ship's position is 22 days out of date.

Length 185 m; draft 8 m.

Type: Cargo ship. MMSI: 209015000.

Date/timePositionNaut miles runAvg speedWind from/ knotsBaromVisibWave heightAir tempDewpointWater temp
2018-Jun-23 10:56N 46°01' W 073°10'613.7
2018-Jun-23 10:30N 45°56' W 073°13'713.6
2018-Jun-23 10:00N 45°50' W 073°18'2211.0
2018-Jun-23 07:59N 45°30' W 073°31'0 0.5
2018-Jun-23 07:22N 45°30' W 073°31'1 1.7
2018-Jun-23 07:00N 45°29' W 073°31'2 4.3
2018-Jun-23 06:30N 45°27' W 073°30'3 5.6
2018-Jun-23 06:00N 45°24' W 073°32'1 2.3
2018-Jun-23 05:30N 45°24' W 073°34'1 1.1
2018-Jun-23 05:00N 45°24' W 073°35'2 4.2
2018-Jun-23 04:29N 45°24' W 073°38'3 5.8
2018-Jun-23 04:00N 45°25' W 073°42'5 9.4
2018-Jun-23 03:30N 45°23' W 073°48'  

Dump ship's entire track history